Time;durP1;ratioP1;P1;durP2;ratioP2;P2;SDS_P1;SDS_P2;PMS_P1;PMS_P2;Temp;Humidity;BMP_temperature;BMP_pressure;BME280_temperature;BME280_humidity;BME280_pressure;Samples;Min_cycle;Max_cycle;Signal;HPM_P1;HPM_P2
2023/06/05 00:01:11;;;;;;;12.27;9.18;;;17.20;99.90;;;;;;5116222;28;20062;-68
2023/06/05 00:03:39;;;;;;;11.50;9.05;;;17.20;99.90;;;;;;5115702;28;20153;-69
2023/06/05 00:06:05;;;;;;;13.95;8.80;;;17.20;99.90;;;;;;5114966;28;20043;-68
2023/06/05 00:08:31;;;;;;;13.10;9.77;;;17.10;99.90;;;;;;5116005;28;20023;-68
2023/06/05 00:10:57;;;;;;;11.85;9.10;;;17.10;99.90;;;;;;5116148;28;20371;-68
2023/06/05 00:13:22;;;;;;;15.52;9.07;;;17.10;99.90;;;;;;5115488;28;20102;-68
2023/06/05 00:15:48;;;;;;;12.48;8.85;;;17.10;99.90;;;;;;5116078;28;20115;-68
2023/06/05 00:18:14;;;;;;;14.05;9.48;;;17.10;99.90;;;;;;5116073;28;20460;-68
2023/06/05 00:20:40;;;;;;;13.95;10.00;;;17.10;99.90;;;;;;5115621;28;20023;-68
2023/06/05 00:23:06;;;;;;;15.77;10.40;;;17.10;99.90;;;;;;5115999;28;20031;-68
2023/06/05 00:25:31;;;;;;;12.18;10.07;;;17.10;99.90;;;;;;5115592;28;20027;-69
2023/06/05 00:27:57;;;;;;;13.38;9.82;;;17.00;99.90;;;;;;5115966;28;20080;-69
2023/06/05 00:30:22;;;;;;;14.00;10.32;;;17.00;99.90;;;;;;5115472;28;20096;-69
2023/06/05 00:32:48;;;;;;;12.02;9.98;;;17.00;99.90;;;;;;5114352;28;20054;-69
2023/06/05 00:35:14;;;;;;;13.65;11.02;;;17.00;99.90;;;;;;5116040;28;20035;-69
2023/06/05 00:37:39;;;;;;;11.05;9.85;;;17.00;99.90;;;;;;5115239;27;20031;-69
2023/06/05 00:40:06;;;;;;;12.23;10.05;;;17.00;99.90;;;;;;5114317;28;20059;-68
2023/06/05 00:42:31;;;;;;;15.05;11.20;;;17.00;99.90;;;;;;5114377;28;20066;-68
2023/06/05 00:44:57;;;;;;;13.73;11.73;;;17.00;99.90;;;;;;5115847;28;20052;-68
2023/06/05 00:47:23;;;;;;;13.32;11.50;;;16.90;99.90;;;;;;5115246;28;20074;-72
2023/06/05 00:49:49;;;;;;;12.95;11.43;;;16.90;99.90;;;;;;5115408;28;20433;-68
2023/06/05 00:52:16;;;;;;;12.90;11.13;;;16.90;99.90;;;;;;5115510;28;20403;-68
2023/06/05 00:54:42;;;;;;;16.02;12.30;;;16.90;99.90;;;;;;5115419;28;20024;-68
2023/06/05 00:57:08;;;;;;;15.27;12.45;;;16.90;99.90;;;;;;5115045;28;20544;-69
2023/06/05 00:59:36;;;;;;;14.10;11.55;;;16.80;99.90;;;;;;5114585;28;20056;-69
2023/06/05 01:02:02;;;;;;;15.57;12.32;;;16.80;99.90;;;;;;5115300;27;20043;-69
2023/06/05 01:04:28;;;;;;;16.90;12.50;;;16.80;99.90;;;;;;5114741;27;20070;-69
2023/06/05 01:06:57;;;;;;;16.05;12.65;;;16.90;99.90;;;;;;5115312;28;20027;-69
2023/06/05 01:09:24;;;;;;;14.85;13.20;;;16.90;99.90;;;;;;5115154;28;20047;-69
2023/06/05 01:12:09;;;;;;;15.27;13.25;;;16.90;99.90;;;;;;5115031;28;20023;-69
2023/06/05 01:14:38;;;;;;;17.27;14.43;;;16.90;99.90;;;;;;5114598;28;20032;-69
2023/06/05 01:17:08;;;;;;;15.68;13.52;;;16.80;99.90;;;;;;5114578;28;20480;-68
2023/06/05 01:19:36;;;;;;;18.55;14.45;;;16.80;99.90;;;;;;5114206;28;20498;-69
2023/06/05 01:22:01;;;;;;;18.13;16.20;;;16.80;99.90;;;;;;5114867;28;20376;-69
2023/06/05 01:24:27;;;;;;;17.80;15.43;;;16.80;99.90;;;;;;5114087;28;20028;-69
2023/06/05 01:27:02;;;;;;;19.40;16.63;;;16.80;99.90;;;;;;5114836;28;20128;-69
2023/06/05 01:29:37;;;;;;;18.23;16.25;;;16.80;99.90;;;;;;5114245;28;20074;-69
2023/06/05 01:32:11;;;;;;;20.00;17.88;;;16.80;99.90;;;;;;5114361;28;20028;-69
2023/06/05 01:34:37;;;;;;;19.35;15.80;;;16.70;99.90;;;;;;5114221;28;20032;-69
2023/06/05 01:37:03;;;;;;;18.13;16.23;;;16.70;99.90;;;;;;5114504;28;20463;-69
2023/06/05 01:39:29;;;;;;;18.08;16.17;;;16.70;99.90;;;;;;5114062;28;20023;-69
2023/06/05 01:41:56;;;;;;;18.30;15.57;;;16.70;99.90;;;;;;5112831;28;20047;-69
2023/06/05 01:44:22;;;;;;;20.35;16.48;;;16.70;99.90;;;;;;5114018;28;20027;-68
2023/06/05 01:46:49;;;;;;;17.83;15.93;;;16.70;99.90;;;;;;5113940;28;20058;-69
2023/06/05 01:49:16;;;;;;;21.25;16.30;;;16.70;99.90;;;;;;5114360;28;20036;-69
2023/06/05 01:51:41;;;;;;;19.77;16.75;;;16.70;99.90;;;;;;5113886;28;20015;-69
2023/06/05 01:54:07;;;;;;;17.70;15.90;;;16.60;99.90;;;;;;5113090;28;20023;-69
2023/06/05 01:56:35;;;;;;;20.65;16.50;;;16.60;99.90;;;;;;5113763;28;20028;-69
2023/06/05 01:59:06;;;;;;;17.63;15.60;;;16.60;99.90;;;;;;5114174;28;20031;-69
2023/06/05 02:01:32;;;;;;;19.70;17.60;;;16.60;99.90;;;;;;5113888;28;20361;-69
2023/06/05 02:03:58;;;;;;;22.80;18.42;;;16.70;99.90;;;;;;5114032;28;20055;-69
2023/06/05 02:06:24;;;;;;;20.88;17.88;;;16.70;99.90;;;;;;5112806;28;20051;-69
2023/06/05 02:08:50;;;;;;;21.50;19.15;;;16.70;99.90;;;;;;5113580;28;20027;-69
2023/06/05 02:11:17;;;;;;;22.90;18.90;;;16.60;99.90;;;;;;5113888;28;20403;-69
2023/06/05 02:13:43;;;;;;;21.05;18.55;;;16.60;99.90;;;;;;5113375;28;20059;-69
2023/06/05 02:16:10;;;;;;;22.38;19.85;;;16.60;99.90;;;;;;5113827;28;20043;-69
2023/06/05 02:18:37;;;;;;;21.65;19.40;;;16.60;99.90;;;;;;5113685;28;20367;-69
2023/06/05 02:21:03;;;;;;;22.77;19.50;;;16.60;99.90;;;;;;5113712;28;20031;-69
2023/06/05 02:23:29;;;;;;;22.98;19.20;;;16.60;99.90;;;;;;5113443;27;20072;-68
2023/06/05 02:25:55;;;;;;;21.65;19.35;;;16.50;99.90;;;;;;5113941;28;20031;-68
2023/06/05 02:28:21;;;;;;;21.27;18.95;;;16.50;99.90;;;;;;5113570;28;20080;-69
2023/06/05 02:30:47;;;;;;;22.15;19.88;;;16.50;99.90;;;;;;5113008;28;20016;-68
2023/06/05 02:33:14;;;;;;;21.60;19.00;;;16.50;99.90;;;;;;5113451;28;20028;-68
2023/06/05 02:35:40;;;;;;;21.58;19.25;;;16.50;99.90;;;;;;5113104;28;20460;-69
2023/06/05 02:38:09;;;;;;;23.02;20.50;;;16.50;99.90;;;;;;5113715;28;20031;-69
2023/06/05 02:40:35;;;;;;;22.70;20.27;;;16.50;99.90;;;;;;5112670;27;20031;-67
2023/06/05 02:43:01;;;;;;;24.65;19.63;;;16.50;99.90;;;;;;5113235;28;20024;-67
2023/06/05 02:45:27;;;;;;;22.63;20.20;;;16.50;99.90;;;;;;5112826;28;20059;-67
2023/06/05 02:47:53;;;;;;;20.52;18.33;;;16.50;99.90;;;;;;5112974;28;20179;-67
2023/06/05 02:50:18;;;;;;;21.00;18.58;;;16.50;99.90;;;;;;5113305;28;20023;-67
2023/06/05 02:52:44;;;;;;;18.88;16.88;;;16.50;99.90;;;;;;5111549;28;20531;-67
2023/06/05 02:55:10;;;;;;;18.27;16.27;;;16.50;99.90;;;;;;5112559;28;20075;-67
2023/06/05 02:57:41;;;;;;;16.90;13.27;;;16.50;99.90;;;;;;5112515;28;20028;-68
2023/06/05 03:00:14;;;;;;;16.73;14.20;;;16.40;99.90;;;;;;5113300;28;20028;-69
2023/06/05 03:02:40;;;;;;;18.40;14.98;;;16.40;99.90;;;;;;5112854;28;20028;-69
2023/06/05 03:05:07;;;;;;;19.63;15.50;;;16.40;99.90;;;;;;5113185;28;20051;-69
2023/06/05 03:07:33;;;;;;;17.48;15.68;;;16.40;99.90;;;;;;5111834;28;20413;-68
2023/06/05 03:10:00;;;;;;;17.98;15.75;;;16.40;99.90;;;;;;5112944;28;20032;-69
2023/06/05 03:12:25;;;;;;;19.10;15.77;;;16.40;99.90;;;;;;5113283;28;20068;-68
2023/06/05 03:14:51;;;;;;;17.55;15.73;;;16.30;99.90;;;;;;5112598;28;20453;-69
2023/06/05 03:17:16;;;;;;;22.77;15.88;;;16.40;99.90;;;;;;5111675;28;20022;-68
2023/06/05 03:19:42;;;;;;;22.50;17.00;;;16.40;99.90;;;;;;5112515;28;20047;-69
2023/06/05 03:22:08;;;;;;;19.33;16.15;;;16.30;99.90;;;;;;5112889;28;20024;-68
2023/06/05 03:24:37;;;;;;;17.52;15.38;;;16.30;99.90;;;;;;5113005;28;20356;-73
2023/06/05 03:27:04;;;;;;;16.67;14.82;;;16.40;99.90;;;;;;5112754;28;20036;-69
2023/06/05 03:29:30;;;;;;;18.75;16.75;;;16.40;99.90;;;;;;5111766;28;20032;-69
2023/06/05 03:31:56;;;;;;;18.50;16.60;;;16.40;99.90;;;;;;5112400;28;20525;-69
2023/06/05 03:34:25;;;;;;;21.25;18.42;;;16.30;99.90;;;;;;5112694;28;20061;-69
2023/06/05 03:36:54;;;;;;;22.17;17.65;;;16.40;99.90;;;;;;5112264;28;20379;-69
2023/06/05 03:39:20;;;;;;;19.95;17.83;;;16.30;99.90;;;;;;5112403;28;20031;-69
2023/06/05 03:41:46;;;;;;;22.60;18.83;;;16.30;99.90;;;;;;5112161;28;20035;-69
2023/06/05 03:44:12;;;;;;;20.13;18.10;;;16.30;99.90;;;;;;5112487;28;20038;-69
2023/06/05 03:46:37;;;;;;;22.48;18.70;;;16.30;99.90;;;;;;5112142;28;20430;-70
2023/06/05 03:49:08;;;;;;;22.02;17.80;;;16.30;99.90;;;;;;5112635;28;20040;-68
2023/06/05 03:51:34;;;;;;;;;;;16.30;99.90;;;;;;5113155;28;20070;-68
2023/06/05 03:54:00;;;;;;;25.05;18.42;;;16.30;99.90;;;;;;5112200;28;19935;-69
2023/06/05 03:56:34;;;;;;;21.30;19.20;;;16.30;99.90;;;;;;5112571;28;20088;-69
2023/06/05 03:59:09;;;;;;;20.52;18.52;;;16.30;99.90;;;;;;5112170;28;20114;-68
2023/06/05 04:01:37;;;;;;;20.42;18.48;;;16.30;99.90;;;;;;5112583;28;20023;-67
2023/06/05 04:04:06;;;;;;;20.45;18.27;;;16.30;99.90;;;;;;5112606;28;20297;-68
2023/06/05 04:06:36;;;;;;;21.00;18.77;;;16.30;99.90;;;;;;5113718;28;20059;-68
2023/06/05 04:09:09;;;;;;;22.03;19.77;;;16.30;99.90;;;;;;5115982;28;20027;-69
2023/06/05 04:11:34;;;;;;;24.52;18.40;;;16.30;99.90;;;;;;5116429;28;20287;-67
2023/06/05 04:14:00;;;;;;;19.98;17.90;;;16.30;99.90;;;;;;5115536;28;20081;-68
2023/06/05 04:16:25;;;;;;;21.58;19.35;;;16.30;99.90;;;;;;5116154;28;20107;-68
2023/06/05 04:18:51;;;;;;;25.83;19.08;;;16.30;99.90;;;;;;5114318;28;20027;-68
2023/06/05 04:21:17;;;;;;;19.83;17.42;;;16.40;99.90;;;;;;5115906;28;20024;-70
2023/06/05 04:23:42;;;;;;;25.13;19.08;;;16.30;99.90;;;;;;5115328;28;20030;-70
2023/06/05 04:26:08;;;;;;;21.92;19.27;;;16.30;99.90;;;;;;5116172;28;20028;-69
2023/06/05 04:28:34;;;;;;;19.92;17.77;;;16.30;99.90;;;;;;5115966;28;20115;-69
2023/06/05 04:31:01;;;;;;;21.88;18.42;;;16.30;99.90;;;;;;5115387;28;20030;-69
2023/06/05 04:33:27;;;;;;;21.83;18.42;;;16.30;99.90;;;;;;5115927;28;20522;-68
2023/06/05 04:35:53;;;;;;;19.90;17.85;;;16.30;99.90;;;;;;5115800;28;20051;-68
2023/06/05 04:38:20;;;;;;;23.00;17.88;;;16.40;99.90;;;;;;5113279;28;20023;-69
2023/06/05 04:40:48;;;;;;;23.17;17.90;;;16.40;99.90;;;;;;5115232;28;20034;-69
2023/06/05 04:43:14;;;;;;;19.67;17.70;;;16.40;99.90;;;;;;5115679;28;20074;-69
2023/06/05 04:45:41;;;;;;;20.08;17.83;;;16.40;99.90;;;;;;5115484;28;20044;-75
2023/06/05 04:48:07;;;;;;;21.30;19.00;;;16.40;99.90;;;;;;5115699;28;20039;-67
2023/06/05 04:50:35;;;;;;;21.60;19.38;;;16.40;99.90;;;;;;5115501;28;20023;-68
2023/06/05 04:53:01;;;;;;;23.85;18.90;;;16.40;99.90;;;;;;5115005;28;20066;-68
2023/06/05 04:55:27;;;;;;;23.02;20.48;;;16.40;99.90;;;;;;5115273;28;20030;-68
2023/06/05 04:57:54;;;;;;;25.17;18.52;;;16.40;99.90;;;;;;5118857;28;20031;-68
2023/06/05 05:00:19;;;;;;;21.88;19.17;;;16.40;99.90;;;;;;5120913;28;20024;-69
2023/06/05 05:02:45;;;;;;;21.73;19.45;;;16.50;99.90;;;;;;5120293;28;20130;-69
2023/06/05 05:05:13;;;;;;;21.20;18.42;;;16.50;99.90;;;;;;5120339;28;20349;-68
2023/06/05 05:07:42;;;;;;;20.77;18.42;;;16.50;99.90;;;;;;5115750;28;20405;-69
2023/06/05 05:10:11;;;;;;;20.77;18.55;;;16.60;99.90;;;;;;5115139;28;20034;-68
2023/06/05 05:12:37;;;;;;;20.17;18.08;;;16.60;99.90;;;;;;5115143;28;20470;-69
2023/06/05 05:15:04;;;;;;;20.02;17.92;;;16.70;99.90;;;;;;5114670;28;20020;-68
2023/06/05 05:17:30;;;;;;;18.98;17.05;;;16.80;99.90;;;;;;5114841;28;20110;-67
2023/06/05 05:19:56;;;;;;;19.80;17.30;;;16.90;99.90;;;;;;5113934;28;20024;-68
2023/06/05 05:22:21;;;;;;;20.60;17.98;;;16.90;99.90;;;;;;5114605;28;20110;-68
2023/06/05 05:24:47;;;;;;;29.42;17.33;;;16.90;99.90;;;;;;5114503;28;20046;-67
2023/06/05 05:27:13;;;;;;;18.23;16.48;;;17.00;99.90;;;;;;5115052;28;20062;-68
2023/06/05 05:29:38;;;;;;;22.67;16.60;;;17.10;99.90;;;;;;5114510;28;20080;-69
2023/06/05 05:32:05;;;;;;;17.15;15.43;;;17.30;99.90;;;;;;5113907;28;20081;-68
2023/06/05 05:34:31;;;;;;;20.15;16.05;;;17.50;99.90;;;;;;5114624;28;20107;-68
2023/06/05 05:36:57;;;;;;;15.65;14.05;;;18.00;99.90;;;;;;5114104;28;20057;-68
2023/06/05 05:39:22;;;;;;;16.20;13.07;;;18.40;99.90;;;;;;5114116;27;20391;-68
2023/06/05 05:41:48;;;;;;;15.10;12.20;;;18.60;99.90;;;;;;5114133;28;20106;-68
2023/06/05 05:44:15;;;;;;;13.45;11.75;;;18.70;98.00;;;;;;5114497;28;20458;-67
2023/06/05 05:46:40;;;;;;;13.68;12.20;;;18.80;97.50;;;;;;5114051;28;20441;-68
2023/06/05 05:49:06;;;;;;;11.93;10.15;;;18.80;97.10;;;;;;5113563;28;20043;-68
2023/06/05 05:51:33;;;;;;;14.32;10.48;;;19.00;97.50;;;;;;5113698;28;20391;-68
2023/06/05 05:53:59;;;;;;;11.02;9.93;;;19.30;96.70;;;;;;5113673;28;20023;-68
2023/06/05 05:56:24;;;;;;;14.32;9.63;;;19.80;95.50;;;;;;5113903;28;20524;-69
2023/06/05 05:58:50;;;;;;;10.93;9.57;;;19.80;93.60;;;;;;5113512;28;20027;-68
2023/06/05 06:01:15;;;;;;;17.02;9.20;;;19.70;93.60;;;;;;5113866;27;20031;-68
2023/06/05 06:03:42;;;;;;;13.23;9.77;;;19.50;93.30;;;;;;5113908;28;20118;-68
2023/06/05 06:06:08;;;;;;;11.80;9.70;;;19.30;93.70;;;;;;5113257;28;20031;-68
2023/06/05 06:08:36;;;;;;;12.63;10.15;;;19.10;94.20;;;;;;5112433;28;20043;-69
2023/06/05 06:11:06;;;;;;;13.80;9.90;;;18.90;94.60;;;;;;5113042;28;20535;-68
2023/06/05 06:13:33;;;;;;;10.43;9.30;;;18.70;95.10;;;;;;5113924;28;20042;-69
2023/06/05 06:15:59;;;;;;;11.07;9.77;;;18.60;95.90;;;;;;5113088;28;20036;-68
2023/06/05 06:18:25;;;;;;;13.55;8.80;;;18.40;96.40;;;;;;5113257;28;20055;-68
2023/06/05 06:20:51;;;;;;;13.63;9.93;;;18.30;97.00;;;;;;5111725;28;20480;-69
2023/06/05 06:23:16;;;;;;;12.85;10.43;;;18.20;97.80;;;;;;5113368;28;20023;-68
2023/06/05 06:25:42;;;;;;;13.70;9.55;;;18.00;98.70;;;;;;5113172;28;20110;-68
2023/06/05 06:28:07;;;;;;;13.15;10.07;;;17.90;99.30;;;;;;5112959;28;20073;-67
2023/06/05 06:30:33;;;;;;;14.98;10.75;;;17.80;99.70;;;;;;5112278;28;20443;-68
2023/06/05 06:32:59;;;;;;;11.55;10.02;;;17.80;99.90;;;;;;5112881;28;20106;-68
2023/06/05 06:35:29;;;;;;;12.35;10.55;;;17.80;99.90;;;;;;5113778;28;20066;-67
2023/06/05 06:37:56;;;;;;;10.48;9.40;;;17.80;99.90;;;;;;5112546;28;20369;-67
2023/06/05 06:40:22;;;;;;;12.00;10.13;;;17.80;99.90;;;;;;5113187;28;20110;-68
2023/06/05 06:42:48;;;;;;;13.75;10.52;;;17.70;99.90;;;;;;5113118;28;20066;-69
2023/06/05 06:45:14;;;;;;;12.30;10.07;;;17.70;99.90;;;;;;5113154;28;20039;-69
2023/06/05 06:47:41;;;;;;;11.63;9.95;;;17.70;99.90;;;;;;5072535;28;20075;-68
2023/06/05 06:50:07;;;;;;;13.10;10.70;;;17.60;99.90;;;;;;5072194;28;20035;-68
2023/06/05 06:52:32;;;;;;;15.63;11.30;;;17.60;99.90;;;;;;5072776;28;20024;-68
2023/06/05 06:54:58;;;;;;;14.90;10.85;;;17.50;99.90;;;;;;5072079;28;20027;-68
2023/06/05 06:57:24;;;;;;;15.05;10.18;;;17.60;99.90;;;;;;5072008;28;20035;-68
2023/06/05 06:59:50;;;;;;;15.25;11.40;;;17.60;99.90;;;;;;5071165;28;20060;-72
2023/06/05 07:02:18;;;;;;;12.52;10.50;;;17.60;99.90;;;;;;5072360;28;20032;-68
2023/06/05 07:04:44;;;;;;;12.82;11.07;;;17.70;99.90;;;;;;5072797;28;20031;-68
2023/06/05 07:07:14;;;;;;;14.23;11.23;;;17.80;99.90;;;;;;5071545;28;20461;-68
2023/06/05 07:09:44;;;;;;;12.77;11.27;;;18.00;99.90;;;;;;5072540;28;20035;-69
2023/06/05 07:12:12;;;;;;;12.23;10.98;;;18.10;99.90;;;;;;5071995;28;20477;-68
2023/06/05 07:14:38;;;;;;;11.77;10.68;;;18.30;99.90;;;;;;5072166;28;20453;-68
2023/06/05 07:17:04;;;;;;;12.18;10.70;;;18.40;99.90;;;;;;5070640;28;20463;-68
2023/06/05 07:19:30;;;;;;;12.02;10.00;;;18.50;99.90;;;;;;5072101;28;20163;-68
2023/06/05 07:21:57;;;;;;;13.63;9.63;;;18.70;99.90;;;;;;5071511;28;20130;-69
2023/06/05 07:24:27;;;;;;;9.80;8.80;;;18.90;99.90;;;;;;5071898;28;20029;-69
2023/06/05 07:26:55;;;;;;;11.02;7.80;;;19.30;99.90;;;;;;5071948;28;20016;-69
2023/06/05 07:29:23;;;;;;;11.20;8.18;;;20.00;97.50;;;;;;5071964;28;20529;-68
2023/06/05 07:31:49;;;;;;;12.27;9.07;;;20.40;96.20;;;;;;5072242;28;20063;-68
2023/06/05 07:34:15;;;;;;;10.93;8.98;;;20.50;94.30;;;;;;5071474;28;20070;-68
2023/06/05 07:36:41;;;;;;;9.48;8.38;;;20.40;93.90;;;;;;5071939;28;20381;-68
2023/06/05 07:39:06;;;;;;;11.30;8.52;;;20.40;93.60;;;;;;5071547;28;20376;-68
2023/06/05 07:41:32;;;;;;;11.75;9.02;;;20.40;93.10;;;;;;5073105;28;20021;-67
2023/06/05 07:43:58;;;;;;;12.80;7.75;;;20.50;93.70;;;;;;5077584;28;20052;-68
2023/06/05 07:46:24;;;;;;;10.80;8.48;;;20.30;93.40;;;;;;5096084;28;20043;-69
2023/06/05 07:48:49;;;;;;;13.35;9.43;;;20.30;93.50;;;;;;5116585;28;20032;-68
2023/06/05 07:51:17;;;;;;;9.48;8.38;;;20.40;93.60;;;;;;5115689;28;20032;-68
2023/06/05 07:53:44;;;;;;;10.75;8.82;;;20.40;92.90;;;;;;5115836;28;20471;-69
2023/06/05 07:56:11;;;;;;;9.52;7.80;;;20.40;93.20;;;;;;5115854;28;20032;-68
2023/06/05 07:58:38;;;;;;;9.23;7.20;;;20.40;93.20;;;;;;5116636;28;20032;-68
2023/06/05 08:01:06;;;;;;;10.40;7.25;;;20.30;93.10;;;;;;5115935;28;20039;-69
2023/06/05 08:03:32;;;;;;;11.18;6.82;;;20.20;93.00;;;;;;5116355;28;20130;-68
2023/06/05 08:05:58;;;;;;;9.88;7.47;;;20.10;92.20;;;;;;5115785;28;20498;-68
2023/06/05 08:08:24;;;;;;;6.55;5.55;;;20.20;92.50;;;;;;5114818;28;20046;-68
2023/06/05 08:10:51;;;;;;;11.48;6.50;;;20.10;92.40;;;;;;5116100;28;20031;-68
2023/06/05 08:13:16;;;;;;;11.15;5.90;;;20.10;91.90;;;;;;5115941;28;20026;-68
2023/06/05 08:15:42;;;;;;;9.40;6.47;;;20.10;91.60;;;;;;5116086;28;20134;-68
2023/06/05 08:18:08;;;;;;;10.32;6.20;;;20.00;91.70;;;;;;5115229;28;20468;-69
2023/06/05 08:20:34;;;;;;;8.93;6.30;;;20.00;91.80;;;;;;5116061;28;20039;-69
2023/06/05 08:23:01;;;;;;;7.65;6.07;;;20.00;91.80;;;;;;5115599;28;20137;-69
2023/06/05 08:25:27;;;;;;;9.27;6.63;;;20.10;91.90;;;;;;5116149;28;20115;-68
2023/06/05 08:27:53;;;;;;;9.25;7.25;;;20.20;91.50;;;;;;5115833;28;20032;-68
2023/06/05 08:30:19;;;;;;;8.90;6.50;;;20.30;91.80;;;;;;5115362;28;20372;-68
2023/06/05 08:32:45;;;;;;;8.25;6.50;;;20.40;91.40;;;;;;5114611;28;20027;-68
2023/06/05 08:35:12;;;;;;;8.18;6.65;;;20.50;91.70;;;;;;5115272;28;20023;-69
2023/06/05 08:37:38;;;;;;;8.18;6.90;;;20.80;91.40;;;;;;5115343;28;20102;-68
2023/06/05 08:40:14;;;;;;;7.55;6.20;;;21.10;91.10;;;;;;5115339;28;20019;-69
2023/06/05 08:42:40;;;;;;;6.63;5.93;;;21.30;89.90;;;;;;5115637;28;20110;-69
2023/06/05 08:45:09;;;;;;;7.63;5.88;;;21.50;87.80;;;;;;5114960;28;20141;-69
2023/06/05 08:47:38;;;;;;;9.07;5.93;;;21.70;87.20;;;;;;5115794;28;20055;-69
2023/06/05 08:50:08;;;;;;;9.68;5.68;;;21.90;86.70;;;;;;5114939;28;20040;-68
2023/06/05 08:52:37;;;;;;;6.68;5.75;;;22.10;85.50;;;;;;5114756;28;20079;-68
2023/06/05 08:55:07;;;;;;;6.43;5.07;;;22.20;84.20;;;;;;5114577;28;20057;-68
2023/06/05 08:57:38;;;;;;;8.27;6.38;;;22.30;82.50;;;;;;5115326;28;20085;-68
2023/06/05 09:00:10;;;;;;;9.80;5.70;;;22.40;81.00;;;;;;5114529;28;20055;-68
2023/06/05 09:02:39;;;;;;;9.70;5.72;;;22.50;81.20;;;;;;5115289;28;20026;-68
2023/06/05 09:05:05;;;;;;;8.40;5.85;;;22.60;82.70;;;;;;5114572;28;20031;-68
2023/06/05 09:07:32;;;;;;;6.45;5.70;;;22.70;81.60;;;;;;5115056;28;20086;-68
2023/06/05 09:09:58;;;;;;;6.63;4.93;;;22.70;79.80;;;;;;5096842;28;20034;-68
2023/06/05 09:12:25;;;;;;;7.90;4.80;;;22.80;79.00;;;;;;5114434;28;20329;-68
2023/06/05 09:14:51;;;;;;;6.50;4.88;;;22.80;77.00;;;;;;5114859;28;20134;-68
2023/06/05 09:17:17;;;;;;;9.98;4.57;;;22.80;75.50;;;;;;5113166;28;20023;-68
2023/06/05 09:19:44;;;;;;;9.10;4.25;;;22.70;75.90;;;;;;5114779;28;20453;-68
2023/06/05 09:22:12;;;;;;;7.15;5.32;;;22.70;75.80;;;;;;5114246;28;20019;-69
2023/06/05 09:24:40;;;;;;;12.30;4.72;;;22.60;75.80;;;;;;5114757;28;20026;-67
2023/06/05 09:27:11;;;;;;;6.50;4.30;;;22.60;75.30;;;;;;5114187;28;20137;-68
2023/06/05 09:29:38;;;;;;;8.05;4.93;;;22.60;74.40;;;;;;5114902;28;20078;-68
2023/06/05 09:32:09;;;;;;;6.45;4.53;;;22.60;74.40;;;;;;5114239;28;20076;-70
2023/06/05 09:34:40;;;;;;;6.38;5.13;;;22.60;75.60;;;;;;5114501;28;20462;-67
2023/06/05 09:37:07;;;;;;;7.20;5.18;;;22.70;76.30;;;;;;5114172;28;20020;-68
2023/06/05 09:39:38;;;;;;;8.32;5.15;;;22.70;76.00;;;;;;5114827;28;20030;-69
2023/06/05 09:42:03;;;;;;;;;;;22.70;76.40;;;;;;5114365;28;20496;-67
2023/06/05 09:44:32;;;;;;;7.60;4.78;;;22.60;75.00;;;;;;5114370;27;19942;-68
2023/06/05 09:47:04;;;;;;;8.02;6.60;;;22.60;76.30;;;;;;5114251;28;20134;-68
2023/06/05 09:49:50;;;;;;;9.10;7.43;;;22.60;76.60;;;;;;5114287;28;20080;-67
2023/06/05 09:52:16;;;;;;;9.02;7.47;;;22.50;76.50;;;;;;5112889;28;20375;-68
2023/06/05 09:54:47;;;;;;;13.60;8.38;;;22.40;77.10;;;;;;5113915;28;20102;-67
2023/06/05 09:57:14;;;;;;;11.40;7.32;;;22.40;78.40;;;;;;5113811;28;20099;-69
2023/06/05 09:59:54;;;;;;;11.18;7.65;;;22.30;79.10;;;;;;5114007;28;20073;-69
2023/06/05 10:02:23;;;;;;;8.02;6.57;;;22.20;79.00;;;;;;5113459;28;20076;-69
2023/06/05 10:04:57;;;;;;;13.30;6.75;;;22.20;79.60;;;;;;5113620;28;20047;-69
2023/06/05 10:07:24;;;;;;;7.28;4.93;;;22.20;78.50;;;;;;5113087;28;20027;-69
2023/06/05 10:09:50;;;;;;;13.90;6.10;;;22.20;78.20;;;;;;5113676;28;20034;-69
2023/06/05 10:12:16;;;;;;;8.10;5.78;;;22.10;78.30;;;;;;5113123;28;20028;-69
2023/06/05 10:14:43;;;;;;;7.25;5.25;;;22.10;78.00;;;;;;5113499;28;20016;-68
2023/06/05 10:17:12;;;;;;;10.35;5.07;;;22.00;77.90;;;;;;5113221;28;20081;-69
2023/06/05 10:19:42;;;;;;;9.15;4.93;;;21.90;77.60;;;;;;5113480;28;20034;-68
2023/06/05 10:22:11;;;;;;;8.32;5.60;;;21.90;77.60;;;;;;5112743;28;20107;-70
2023/06/05 10:24:42;;;;;;;7.47;5.70;;;21.60;78.50;;;;;;5112329;28;20110;-68
2023/06/05 10:27:14;;;;;;;6.70;5.57;;;21.60;79.20;;;;;;5113121;28;20023;-69
2023/06/05 10:29:55;;;;;;;8.30;6.20;;;21.40;80.10;;;;;;5113648;28;20031;-68
2023/06/05 10:32:36;;;;;;;9.82;6.15;;;21.40;81.70;;;;;;5112609;28;20035;-69
2023/06/05 10:35:05;;;;;;;8.13;5.68;;;21.30;82.20;;;;;;5113409;28;20031;-69
2023/06/05 10:38:01;;;;;;;6.55;5.60;;;21.30;83.30;;;;;;5113456;28;20115;-68
2023/06/05 10:40:28;;;;;;;11.65;5.75;;;21.30;83.60;;;;;;5113063;28;20024;-68
2023/06/05 10:42:53;;;;;;;10.85;5.25;;;21.20;84.30;;;;;;5113319;28;20032;-69
2023/06/05 10:45:32;;;;;;;8.75;5.95;;;21.30;84.50;;;;;;5112621;28;20430;-68
2023/06/05 10:47:57;;;;;;;7.97;6.22;;;21.30;84.40;;;;;;5111958;28;20027;-68
2023/06/05 10:50:25;;;;;;;8.82;6.22;;;21.30;84.80;;;;;;5112623;28;20035;-69
2023/06/05 10:52:52;;;;;;;9.35;5.55;;;21.40;85.20;;;;;;5113165;28;20364;-68
2023/06/05 10:55:18;;;;;;;8.10;5.88;;;21.50;85.40;;;;;;5113280;28;20478;-68
2023/06/05 10:58:09;;;;;;;8.82;5.70;;;21.50;85.00;;;;;;5113458;28;20115;-67
2023/06/05 11:00:55;;;;;;;8.77;5.55;;;21.50;85.40;;;;;;5113658;28;20015;-68
2023/06/05 11:04:00;;;;;;;6.32;5.00;;;21.50;85.70;;;;;;5112845;28;20032;-68
2023/06/05 11:06:26;;;;;;;6.43;4.88;;;21.60;84.80;;;;;;5112594;28;20019;-68
2023/06/05 11:09:09;;;;;;;8.32;4.57;;;21.60;84.10;;;;;;5111184;28;20047;-69
2023/06/05 11:12:02;;;;;;;8.95;5.22;;;21.80;84.20;;;;;;5112720;28;20067;-69
2023/06/05 11:14:43;;;;;;;5.97;4.47;;;21.90;84.50;;;;;;5112208;28;20468;-68
2023/06/05 11:17:41;;;;;;;11.20;5.20;;;22.00;84.30;;;;;;5117143;28;20032;-72
2023/06/05 11:20:26;;;;;;;5.95;4.85;;;22.10;83.50;;;;;;5085120;27;20111;-69
2023/06/05 11:22:52;;;;;;;8.27;4.80;;;22.10;82.90;;;;;;5119125;28;20079;-69
2023/06/05 11:25:26;;;;;;;6.45;4.72;;;22.20;83.10;;;;;;5119232;28;20100;-68
2023/06/05 11:27:58;;;;;;;5.88;4.38;;;22.20;83.00;;;;;;5119570;28;20027;-68
2023/06/05 11:30:31;;;;;;;8.25;5.78;;;22.20;83.30;;;;;;5119187;28;20158;-68
2023/06/05 11:33:08;;;;;;;6.90;5.15;;;22.20;83.70;;;;;;5119415;28;20044;-68
2023/06/05 11:35:34;;;;;;;5.53;4.85;;;22.20;84.00;;;;;;5118912;28;20028;-69
2023/06/05 11:38:18;;;;;;;10.05;4.90;;;22.30;84.30;;;;;;5118488;28;20028;-69
2023/06/05 11:40:44;;;;;;;10.65;5.07;;;22.30;84.10;;;;;;5119207;28;20511;-69
2023/06/05 11:43:12;;;;;;;7.45;4.18;;;22.30;83.50;;;;;;5119498;28;20114;-68
2023/06/05 11:45:39;;;;;;;11.57;5.28;;;22.30;83.90;;;;;;5118967;27;20154;-69
2023/06/05 11:48:10;;;;;;;8.65;4.80;;;22.30;84.30;;;;;;5119553;27;20437;-68
2023/06/05 11:50:37;;;;;;;;;;;22.30;84.40;;;;;;5119748;27;20032;-68
2023/06/05 11:53:07;;;;;;;8.25;5.53;;;22.30;84.80;;;;;;5119360;27;19903;-69
2023/06/05 11:58:29;;;;;;;7.05;4.50;;;22.20;85.20;;;;;;5108353;28;20039;-68
2023/06/05 12:01:17;;;;;;;6.57;4.30;;;22.10;85.10;;;;;;5115776;28;20038;-68
2023/06/05 12:03:45;;;;;;;7.55;4.05;;;22.10;85.60;;;;;;5119320;27;20030;-68
2023/06/05 12:06:13;;;;;;;7.50;4.22;;;22.00;85.90;;;;;;5119139;27;20107;-68
2023/06/05 12:08:41;;;;;;;8.43;4.07;;;22.00;85.60;;;;;;5119061;27;20050;-68
2023/06/05 12:11:24;;;;;;;7.60;4.38;;;22.00;85.70;;;;;;5119320;27;20028;-68
2023/06/05 12:13:56;;;;;;;5.20;3.92;;;22.00;86.20;;;;;;5118866;27;20525;-69
2023/06/05 12:16:36;;;;;;;6.43;4.28;;;22.00;85.40;;;;;;5118440;27;20023;-69
2023/06/05 12:19:13;;;;;;;6.80;4.47;;;22.00;85.30;;;;;;5118455;27;20055;-68
2023/06/05 12:21:39;;;;;;;9.52;4.22;;;21.90;85.90;;;;;;5118754;27;20492;-69
2023/06/05 12:24:06;;;;;;;6.68;4.30;;;21.90;86.40;;;;;;5118920;28;20062;-69
2023/06/05 12:27:00;;;;;;;6.60;3.70;;;21.90;86.30;;;;;;5118907;27;20034;-69
2023/06/05 12:29:28;;;;;;;8.73;3.75;;;21.90;86.30;;;;;;5115281;28;20051;-69
2023/06/05 12:31:56;;;;;;;6.20;3.50;;;21.90;86.40;;;;;;5116080;28;20380;-69
2023/06/05 12:34:41;;;;;;;8.23;4.35;;;21.90;86.60;;;;;;5114798;28;20026;-69
2023/06/05 12:37:08;;;;;;;7.97;4.65;;;21.80;87.20;;;;;;5115660;28;20028;-69
2023/06/05 12:39:33;;;;;;;8.23;4.85;;;21.80;87.80;;;;;;5115266;28;20038;-68
2023/06/05 12:41:59;;;;;;;6.90;4.65;;;21.90;88.10;;;;;;5115706;28;20028;-68
2023/06/05 12:44:25;;;;;;;7.00;4.50;;;21.80;88.60;;;;;;5115248;28;20015;-68